createdAt,value
2019-03-16T00:00:33.886Z,98927.91
2019-03-16T00:03:05.581Z,98923.46
2019-03-16T00:05:37.214Z,98926.29
2019-03-16T00:08:08.994Z,98938.68
2019-03-16T00:10:40.662Z,98931.22
2019-03-16T00:13:15.856Z,98938.45
2019-03-16T00:15:45.650Z,98961.54
2019-03-16T00:18:17.344Z,98919.88
2019-03-16T00:20:48.930Z,98943.80
2019-03-16T00:23:20.778Z,98942.26
2019-03-16T00:25:52.510Z,98942.26
2019-03-16T00:28:24.446Z,98949.02
2019-03-16T00:30:56.108Z,98980.80
2019-03-16T00:33:27.713Z,98962.16
2019-03-16T00:35:59.287Z,98961.38
2019-03-16T00:38:30.891Z,98961.38
2019-03-16T00:41:02.469Z,98962.08
2019-03-16T00:43:34.226Z,98960.12
2019-03-16T00:46:05.770Z,98964.98
2019-03-16T00:48:37.370Z,98971.68
2019-03-16T00:51:08.962Z,98951.97
2019-03-16T00:53:40.625Z,98961.96
2019-03-16T00:56:12.255Z,98989.81
2019-03-16T00:58:43.868Z,98995.66
2019-03-16T01:01:15.516Z,98964.67
2019-03-16T01:03:47.193Z,98974.53
2019-03-16T01:06:18.777Z,98989.75
2019-03-16T01:08:50.681Z,98970.67
2019-03-16T01:11:22.509Z,98987.61
2019-03-16T01:13:54.357Z,98978.61
2019-03-16T01:16:26.004Z,98987.61
2019-03-16T01:18:57.601Z,98996.27
2019-03-16T01:21:29.193Z,98994.30
2019-03-16T01:24:00.861Z,98999.14
2019-03-16T01:26:32.443Z,99000.89
2019-03-16T01:29:04.048Z,98989.78
2019-03-16T01:31:35.632Z,99004.22
2019-03-16T01:34:07.227Z,99016.97
2019-03-16T01:36:38.803Z,99017.23
2019-03-16T01:39:10.494Z,99017.75
2019-03-16T01:41:42.091Z,99023.98
2019-03-16T01:44:13.704Z,99029.69
2019-03-16T01:46:45.286Z,99030.76
2019-03-16T01:49:16.883Z,99038.28
2019-03-16T01:51:49.545Z,99047.28
2019-03-16T01:54:21.344Z,99048.62
2019-03-16T01:56:52.922Z,99065.44
2019-03-16T01:59:24.622Z,99062.76
2019-03-16T02:01:56.208Z,99064.09
2019-03-16T02:04:27.903Z,99066.15
2019-03-16T02:06:59.553Z,99077.94
2019-03-16T02:09:31.332Z,99083.70
2019-03-16T02:12:02.921Z,99081.02
2019-03-16T02:14:34.533Z,99090.02
2019-03-16T02:17:06.287Z,99102.41
2019-03-16T02:19:37.905Z,99099.23
2019-03-16T02:22:09.487Z,99102.67
2019-03-16T02:24:41.089Z,99112.75
2019-03-16T02:27:12.740Z,99120.83
2019-03-16T02:29:44.337Z,99132.49
2019-03-16T02:32:15.928Z,99139.91
2019-03-16T02:34:47.528Z,99142.73
2019-03-16T02:37:19.114Z,99140.45
2019-03-16T02:39:51.228Z,99143.96
2019-03-16T02:42:22.819Z,99155.77
2019-03-16T02:44:54.598Z,99165.34
2019-03-16T02:47:26.274Z,99152.12
2019-03-16T02:49:57.938Z,99180.81
2019-03-16T02:52:29.513Z,99162.57
2019-03-16T02:55:01.301Z,99161.02
2019-03-16T02:57:33.124Z,99185.44
2019-03-16T03:00:05.170Z,99175.83
2019-03-16T03:02:36.922Z,99172.47
2019-03-16T03:05:08.880Z,99195.91
2019-03-16T03:07:40.514Z,99187.02
2019-03-16T03:10:12.280Z,99198.44
2019-03-16T03:12:43.943Z,99202.73
2019-03-16T03:15:16.621Z,99258.02
2019-03-16T03:17:48.205Z,99210.89
2019-03-16T03:20:19.854Z,99223.75
2019-03-16T03:22:51.593Z,99229.09
2019-03-16T03:25:23.248Z,99250.00
2019-03-16T03:27:54.848Z,99243.33
2019-03-16T03:30:26.462Z,99250.00
2019-03-16T03:32:58.066Z,99245.98
2019-03-16T03:35:29.851Z,99253.53
2019-03-16T03:38:01.509Z,99250.25
2019-03-16T03:40:33.192Z,99264.70
2019-03-16T03:43:04.841Z,99259.83
2019-03-16T03:45:36.449Z,99268.82
2019-03-16T03:48:08.107Z,99275.86
2019-03-16T03:50:39.703Z,99291.41
2019-03-16T03:53:11.357Z,99282.93
2019-03-16T03:55:42.955Z,99297.73
2019-03-16T03:58:14.526Z,99282.56
2019-03-16T04:00:46.112Z,99296.40
2019-03-16T04:03:17.792Z,99286.82
2019-03-16T04:05:49.520Z,99301.88
2019-03-16T04:08:21.346Z,99297.38
2019-03-16T04:10:53.043Z,99305.52
2019-03-16T04:13:24.732Z,99336.03
2019-03-16T04:15:56.313Z,99311.23
2019-03-16T04:18:28.002Z,99319.99
2019-03-16T04:20:59.619Z,99305.18
2019-03-16T04:23:32.285Z,99319.15
2019-03-16T04:26:03.948Z,99335.64
2019-03-16T04:28:35.547Z,99333.23
2019-03-16T04:31:07.250Z,99347.56
2019-03-16T04:33:39.015Z,99344.66
2019-03-16T04:36:10.625Z,99347.20
2019-03-16T04:38:42.308Z,99347.67
2019-03-16T04:41:14.096Z,99355.45
2019-03-16T04:43:45.805Z,99366.14
2019-03-16T04:46:17.506Z,99377.42
2019-03-16T04:48:49.197Z,99376.35
2019-03-16T04:51:20.799Z,99369.05
2019-03-16T04:53:52.524Z,99392.25
2019-03-16T04:56:24.481Z,99390.66
2019-03-16T04:58:56.070Z,99389.95
2019-03-16T05:01:27.746Z,99403.17
2019-03-16T05:03:59.516Z,99408.88
2019-03-16T05:06:31.484Z,99407.69
2019-03-16T05:09:03.421Z,99424.31
2019-03-16T05:11:35.109Z,99430.50
2019-03-16T05:14:06.690Z,99433.67
2019-03-16T05:16:38.463Z,99428.56
2019-03-16T05:19:10.165Z,99435.61
2019-03-16T05:21:41.957Z,99449.57
2019-03-16T05:24:13.667Z,99445.53
2019-03-16T05:26:45.271Z,99454.38
2019-03-16T05:29:16.863Z,99452.58
2019-03-16T05:31:50.662Z,99454.75
2019-03-16T05:34:21.896Z,99470.17
2019-03-16T05:36:56.085Z,99478.92
2019-03-16T05:39:27.112Z,99494.95
2019-03-16T05:41:58.819Z,99489.23
2019-03-16T05:44:30.502Z,99485.97
2019-03-16T05:47:02.188Z,99487.80
2019-03-16T05:49:33.771Z,99497.16
2019-03-16T05:52:05.478Z,99503.80
2019-03-16T05:54:37.069Z,99501.39
2019-03-16T05:57:08.677Z,99513.42
2019-03-16T05:59:40.267Z,99509.55
2019-03-16T06:02:12.570Z,99507.70
2019-03-16T06:04:44.259Z,99515.95
2019-03-16T06:07:15.966Z,99529.08
2019-03-16T06:09:47.667Z,99527.41
2019-03-16T06:12:19.291Z,99537.59
2019-03-16T06:14:50.875Z,99546.13
2019-03-16T06:17:22.679Z,99547.55
2019-03-16T06:19:54.442Z,99547.22
2019-03-16T06:22:26.039Z,99561.55
2019-03-16T06:24:57.646Z,99568.33
2019-03-16T06:27:29.270Z,99562.02
2019-03-16T06:30:00.874Z,99564.22
2019-03-16T06:32:33.633Z,99568.23
2019-03-16T06:35:05.241Z,99579.80
2019-03-16T06:37:36.923Z,99597.78
2019-03-16T06:40:08.654Z,99585.78
2019-03-16T06:42:40.374Z,99621.41
2019-03-16T06:45:12.131Z,99592.38
2019-03-16T06:47:43.747Z,99605.11
2019-03-16T06:50:15.443Z,99615.23
2019-03-16T06:52:47.031Z,99604.55
2019-03-16T06:55:18.614Z,99627.27
2019-03-16T06:57:50.191Z,99631.31
2019-03-16T07:00:21.781Z,99619.38
2019-03-16T07:02:53.637Z,99653.78
2019-03-16T07:05:37.540Z,99656.45
2019-03-16T07:07:59.022Z,99647.18
2019-03-16T07:10:30.670Z,99660.41
2019-03-16T07:13:02.250Z,99669.81
2019-03-16T07:15:33.873Z,99659.59
2019-03-16T07:18:05.590Z,99690.10
2019-03-16T07:20:37.185Z,99672.59
2019-03-16T07:23:09.883Z,99687.05
2019-03-16T07:25:41.590Z,99679.31
2019-03-16T07:28:13.490Z,99694.77
2019-03-16T07:30:45.170Z,99689.89
2019-03-16T07:33:16.819Z,99707.16
2019-03-16T07:35:48.417Z,99709.72
2019-03-16T07:38:20.091Z,99722.24
2019-03-16T07:40:51.759Z,99723.83
2019-03-16T07:43:23.627Z,99744.86
2019-03-16T07:45:55.498Z,99728.71
2019-03-16T07:48:27.095Z,99735.53
2019-03-16T07:50:58.690Z,99741.39
2019-03-16T07:53:30.298Z,99740.05
2019-03-16T07:56:03.679Z,99750.03
2019-03-16T07:58:35.374Z,99749.42
2019-03-16T08:01:06.957Z,99772.91
2019-03-16T08:03:38.574Z,99755.28
2019-03-16T08:06:10.158Z,99767.69
2019-03-16T08:08:41.841Z,99766.13
2019-03-16T08:11:13.429Z,99772.45
2019-03-16T08:13:45.030Z,99772.58
2019-03-16T08:16:16.627Z,99769.77
2019-03-16T08:18:48.307Z,99760.67
2019-03-16T08:21:19.959Z,99766.77
2019-03-16T08:23:53.746Z,99770.28
2019-03-16T08:26:24.958Z,99761.14
2019-03-16T08:28:59.154Z,99775.62
2019-03-16T08:31:29.911Z,99780.14
2019-03-16T08:34:01.603Z,99773.33
2019-03-16T08:36:33.261Z,99782.45
2019-03-16T08:39:05.675Z,99786.87
2019-03-16T08:41:37.266Z,99797.37
2019-03-16T08:44:08.883Z,99809.77
2019-03-16T08:46:41.006Z,99801.86
2019-03-16T08:49:12.762Z,99804.06
2019-03-16T08:51:44.367Z,99824.41
2019-03-16T08:54:15.969Z,99827.31
2019-03-16T08:56:47.645Z,99828.91
2019-03-16T08:59:19.309Z,99839.98
2019-03-16T09:01:51.976Z,99844.12
2019-03-16T09:04:23.692Z,99833.78
2019-03-16T09:06:56.248Z,99832.57
2019-03-16T09:09:27.854Z,99849.87
2019-03-16T09:12:00.520Z,99854.73
2019-03-16T09:14:32.117Z,99852.44
2019-03-16T09:17:04.021Z,99852.53
2019-03-16T09:19:35.858Z,99882.16
2019-03-16T09:22:07.573Z,99851.08
2019-03-16T09:24:39.264Z,99872.16
2019-03-16T09:27:10.947Z,99873.77
2019-03-16T09:29:42.562Z,99868.52
2019-03-16T09:32:14.153Z,99866.67
2019-03-16T09:34:45.760Z,99873.29
2019-03-16T09:37:17.341Z,99884.34
2019-03-16T09:39:48.964Z,99881.06
2019-03-16T09:42:20.810Z,99890.56
2019-03-16T09:44:52.656Z,99887.77
2019-03-16T09:47:24.589Z,99883.73
2019-03-16T09:50:20.335Z,99903.47
2019-03-16T09:52:52.809Z,99898.58
2019-03-16T09:55:25.392Z,99898.11
2019-03-16T09:57:57.084Z,99927.72
2019-03-16T10:00:28.713Z,99906.64
2019-03-16T10:03:00.310Z,99907.13
2019-03-16T10:05:31.924Z,99917.35
2019-03-16T10:08:03.586Z,99907.13
2019-03-16T10:10:35.451Z,99912.48
2019-03-16T10:13:07.612Z,99901.65
2019-03-16T10:15:41.275Z,99918.73
2019-03-16T10:18:13.234Z,99916.89
2019-03-16T10:20:44.979Z,99922.09
2019-03-16T10:23:17.817Z,99929.17
2019-03-16T10:25:49.826Z,99924.66
2019-03-16T10:28:22.113Z,99927.22
2019-03-16T10:30:53.772Z,99928.94
2019-03-16T10:33:25.466Z,99936.39
2019-03-16T10:35:58.138Z,99931.16
2019-03-16T10:38:29.734Z,99932.27
2019-03-16T10:41:01.349Z,99944.70
2019-03-16T10:43:34.469Z,99930.31
2019-03-16T10:46:08.365Z,99934.66
2019-03-16T10:48:39.740Z,99923.16
2019-03-16T10:51:11.439Z,99926.06
2019-03-16T10:53:43.094Z,99923.84
2019-03-16T10:56:14.814Z,99938.73
2019-03-16T10:58:56.130Z,99935.80
2019-03-16T11:01:20.254Z,99931.01
2019-03-16T11:03:52.652Z,99924.04
2019-03-16T11:06:24.631Z,99933.88
2019-03-16T11:08:56.677Z,99952.32
2019-03-16T11:11:28.305Z,99931.99
2019-03-16T11:14:00.089Z,99937.22
2019-03-16T11:16:33.520Z,99938.78
2019-03-16T11:19:05.584Z,99944.01
2019-03-16T11:21:37.361Z,99954.03
2019-03-16T11:24:09.169Z,99963.48
2019-03-16T11:26:41.127Z,99971.27
2019-03-16T11:29:13.031Z,99976.27
2019-03-16T11:31:45.021Z,99956.38
2019-03-16T11:34:16.850Z,99980.75
2019-03-16T11:36:48.576Z,99972.13
2019-03-16T11:39:20.482Z,99971.42
2019-03-16T11:41:54.077Z,99966.77
2019-03-16T11:44:28.105Z,99960.78
2019-03-16T11:46:59.826Z,99963.47
2019-03-16T11:49:31.711Z,99966.45
2019-03-16T11:52:03.891Z,99955.59
2019-03-16T11:54:35.773Z,99943.69
2019-03-16T11:57:07.626Z,99948.50
2019-03-16T11:59:39.367Z,99950.27
2019-03-16T12:02:11.055Z,99945.77
2019-03-16T12:04:42.961Z,99945.97
2019-03-16T12:07:14.756Z,99945.23
2019-03-16T12:09:46.517Z,99949.73
2019-03-16T12:12:18.293Z,99944.98
2019-03-16T12:14:50.156Z,99943.29
2019-03-16T12:17:22.192Z,99935.58
2019-03-16T12:19:54.001Z,99935.31
2019-03-16T12:22:25.730Z,99947.11
2019-03-16T12:24:58.304Z,99947.05
2019-03-16T12:27:30.338Z,99943.49
2019-03-16T12:30:06.039Z,99948.69
2019-03-16T12:32:40.899Z,99957.72
2019-03-16T12:35:14.806Z,99940.67
2019-03-16T12:37:46.969Z,99947.45
2019-03-16T12:40:18.979Z,99944.94
2019-03-16T12:42:50.620Z,99928.50
2019-03-16T12:45:22.661Z,99943.44
2019-03-16T12:47:54.394Z,99946.09
2019-03-16T12:50:26.294Z,99942.56
2019-03-16T12:52:58.394Z,99944.38
2019-03-16T12:55:30.487Z,99943.64
2019-03-16T12:58:03.643Z,99942.57
2019-03-16T13:00:35.668Z,99942.83
2019-03-16T13:03:07.966Z,99933.97
2019-03-16T13:05:40.302Z,99927.78
2019-03-16T13:08:12.452Z,99943.22
2019-03-16T13:10:44.765Z,99941.05
2019-03-16T13:13:16.762Z,99937.36
2019-03-16T13:15:49.363Z,99933.75
2019-03-16T13:18:21.710Z,99937.70
2019-03-16T13:20:53.519Z,99939.13
2019-03-16T13:23:25.507Z,99941.85
2019-03-16T13:25:57.417Z,99945.38
2019-03-16T13:28:29.020Z,99952.44
2019-03-16T13:31:00.647Z,99950.52
2019-03-16T13:33:33.347Z,99957.02
2019-03-16T13:36:04.959Z,99953.03
2019-03-16T13:38:36.646Z,99948.34
2019-03-16T13:41:08.414Z,99941.79
2019-03-16T13:43:40.055Z,99941.88
2019-03-16T13:46:11.671Z,99934.78
2019-03-16T13:48:43.579Z,99931.53
2019-03-16T13:51:15.196Z,99935.81
2019-03-16T13:53:46.824Z,99932.81
2019-03-16T13:56:18.492Z,99933.18
2019-03-16T13:58:50.392Z,99929.92
2019-03-16T14:01:22.108Z,99927.83
2019-03-16T14:03:53.928Z,99936.32
2019-03-16T14:06:25.897Z,99928.09
2019-03-16T14:08:57.807Z,99942.93
2019-03-16T14:11:29.439Z,99944.24
2019-03-16T14:14:01.048Z,99955.95
2019-03-16T14:16:32.720Z,99935.89
2019-03-16T14:19:04.641Z,99936.32
2019-03-16T14:21:38.030Z,99947.48
2019-03-16T14:24:09.715Z,99930.22
2019-03-16T14:26:42.619Z,99934.38
2019-03-16T14:29:14.401Z,99944.03
2019-03-16T14:31:48.016Z,99934.52
2019-03-16T14:34:20.129Z,99950.10
2019-03-16T14:36:53.338Z,99932.05
2019-03-16T14:39:27.389Z,99932.34
2019-03-16T14:41:59.636Z,99934.73
2019-03-16T14:44:32.300Z,99916.65
2019-03-16T14:47:04.172Z,99923.52
2019-03-16T14:49:35.874Z,99925.14
2019-03-16T14:52:07.790Z,99929.89
2019-03-16T14:54:39.482Z,99930.95
2019-03-16T14:57:11.164Z,99929.27
2019-03-16T14:59:44.009Z,99928.28
2019-03-16T15:02:15.616Z,99933.23
2019-03-16T15:04:47.310Z,99930.40
2019-03-16T15:07:18.915Z,99929.41
2019-03-16T15:09:50.646Z,99929.52
2019-03-16T15:12:22.466Z,99929.77
2019-03-16T15:14:54.542Z,99928.84
2019-03-16T15:17:28.352Z,99926.68
2019-03-16T15:20:00.571Z,99924.92
2019-03-16T15:22:32.371Z,99923.75
2019-03-16T15:25:04.488Z,99933.30
2019-03-16T15:27:36.284Z,99924.98
2019-03-16T15:30:10.520Z,99930.52
2019-03-16T15:32:44.796Z,99937.19
2019-03-16T15:35:17.385Z,99945.63
2019-03-16T15:37:49.327Z,99932.31
2019-03-16T15:40:21.406Z,99940.45
2019-03-16T15:42:54.615Z,99931.16
2019-03-16T15:45:26.889Z,99934.97
2019-03-16T15:47:58.805Z,99956.02
2019-03-16T15:50:30.688Z,99966.78
2019-03-16T15:53:02.499Z,99954.97
2019-03-16T15:55:34.268Z,99956.48
2019-03-16T15:58:08.435Z,99962.35
2019-03-16T16:00:39.585Z,99960.77
2019-03-16T16:03:11.548Z,99964.58
2019-03-16T16:05:43.361Z,99960.19
2019-03-16T16:08:15.134Z,99953.59
2019-03-16T16:10:59.714Z,99950.09
2019-03-16T16:13:22.052Z,99949.95
2019-03-16T16:15:55.013Z,99954.72
2019-03-16T16:18:26.777Z,99961.23
2019-03-16T16:20:58.644Z,99967.22
2019-03-16T16:23:30.440Z,99974.39
2019-03-16T16:26:02.293Z,99967.55
2019-03-16T16:28:34.414Z,99966.21
2019-03-16T16:31:16.229Z,99977.49
2019-03-16T16:33:40.686Z,99984.09
2019-03-16T16:36:12.502Z,99972.50
2019-03-16T16:38:44.427Z,99977.67
2019-03-16T16:41:16.260Z,99967.38
2019-03-16T16:43:48.140Z,99972.59
2019-03-16T16:46:19.765Z,99977.34
2019-03-16T16:48:51.543Z,99982.05
2019-03-16T16:51:23.345Z,99981.39
2019-03-16T16:53:55.298Z,99976.68
2019-03-16T16:56:27.247Z,99983.70
2019-03-16T16:58:59.078Z,99972.52
2019-03-16T17:01:32.258Z,99978.31
2019-03-16T17:04:04.578Z,99982.63
2019-03-16T17:06:36.445Z,99982.09
2019-03-16T17:09:08.805Z,99993.17
2019-03-16T17:11:40.452Z,99983.09
2019-03-16T17:14:12.230Z,99982.34
2019-03-16T17:16:43.929Z,99992.67
2019-03-16T17:19:15.663Z,99995.83
2019-03-16T17:21:47.406Z,99989.21
2019-03-16T17:24:19.460Z,99993.16
2019-03-16T17:26:54.373Z,99993.30
2019-03-16T17:29:26.799Z,99996.20
2019-03-16T17:31:58.763Z,99995.08
2019-03-16T17:34:30.496Z,99997.17
2019-03-16T17:37:02.402Z,99996.20
2019-03-16T17:39:34.151Z,99997.33
2019-03-16T17:42:07.913Z,99989.06
2019-03-16T17:44:39.785Z,99992.98
2019-03-16T17:47:11.711Z,99991.43
2019-03-16T17:49:44.876Z,99987.33
2019-03-16T17:52:16.749Z,99985.98
2019-03-16T17:54:48.411Z,99986.36
2019-03-16T17:57:20.106Z,99983.03
2019-03-16T17:59:52.316Z,99978.20
2019-03-16T18:02:24.009Z,99974.56
2019-03-16T18:04:59.578Z,99972.33
2019-03-16T18:07:34.231Z,99971.73
2019-03-16T18:10:08.580Z,99969.55
2019-03-16T18:12:40.710Z,99965.79
2019-03-16T18:15:12.912Z,99965.79
2019-03-16T18:17:47.211Z,99962.14
2019-03-16T18:20:19.225Z,99962.59
2019-03-16T18:22:51.135Z,99969.75
2019-03-16T18:25:23.491Z,99962.00
2019-03-16T18:27:55.297Z,99950.61
2019-03-16T18:30:27.161Z,99951.94
2019-03-16T18:32:59.473Z,99949.36
2019-03-16T18:35:31.304Z,99948.00
2019-03-16T18:38:03.073Z,99945.58
2019-03-16T18:40:34.884Z,99935.69
2019-03-16T18:43:06.841Z,99937.15
2019-03-16T18:45:39.438Z,99935.56
2019-03-16T18:48:13.451Z,99931.65
2019-03-16T18:50:46.276Z,99935.64
2019-03-16T18:53:22.378Z,99932.59
2019-03-16T18:55:55.676Z,99931.41
2019-03-16T18:58:37.033Z,99938.23
2019-03-16T19:01:03.225Z,99935.19
2019-03-16T19:03:39.800Z,99942.17
2019-03-16T19:06:12.563Z,99944.25
2019-03-16T19:08:44.289Z,99932.00
2019-03-16T19:11:16.591Z,99935.51
2019-03-16T19:13:48.843Z,99937.12
2019-03-16T19:16:20.936Z,99926.37
2019-03-16T19:18:52.772Z,99928.17
2019-03-16T19:21:24.698Z,99919.36
2019-03-16T19:23:56.944Z,99914.23
2019-03-16T19:26:30.078Z,99912.67
2019-03-16T19:29:02.262Z,99905.49
2019-03-16T19:31:34.086Z,99899.92
2019-03-16T19:34:07.081Z,99895.22
2019-03-16T19:36:39.478Z,99897.00
2019-03-16T19:39:11.723Z,99894.16
2019-03-16T19:41:46.313Z,99896.33
2019-03-16T19:44:18.426Z,99893.43
2019-03-16T19:46:52.234Z,99885.13
2019-03-16T19:49:26.247Z,99887.48
2019-03-16T19:52:01.559Z,99884.66
2019-03-16T19:54:33.758Z,99886.59
2019-03-16T19:57:15.480Z,99888.22
2019-03-16T19:59:42.148Z,99888.59
2019-03-16T20:02:14.648Z,99884.36
2019-03-16T20:04:46.506Z,99880.88
2019-03-16T20:07:19.592Z,99876.34
2019-03-16T20:09:53.115Z,99874.43
2019-03-16T20:12:24.863Z,99874.58
2019-03-16T20:14:56.955Z,99875.28
2019-03-16T20:17:28.859Z,99866.76
2019-03-16T20:20:01.293Z,99853.41
2019-03-16T20:22:33.422Z,99859.84
2019-03-16T20:25:05.501Z,99853.92
2019-03-16T20:27:38.699Z,99855.00
2019-03-16T20:30:26.458Z,99849.15
2019-03-16T20:33:04.370Z,99851.67
2019-03-16T20:35:37.150Z,99845.88
2019-03-16T20:38:08.870Z,99853.02
2019-03-16T20:40:40.652Z,99852.20
2019-03-16T20:43:12.364Z,99855.31
2019-03-16T20:45:44.084Z,99856.20
2019-03-16T20:48:15.902Z,99857.03
2019-03-16T20:50:47.613Z,99852.79
2019-03-16T20:53:19.311Z,99850.88
2019-03-16T20:55:51.200Z,99844.69
2019-03-16T20:58:23.148Z,99843.08
2019-03-16T21:00:57.877Z,99845.80
2019-03-16T21:03:29.185Z,99839.44
2019-03-16T21:06:00.925Z,99842.03
2019-03-16T21:08:32.751Z,99843.88
2019-03-16T21:11:04.500Z,99849.09
2019-03-16T21:13:36.603Z,99845.97
2019-03-16T21:16:10.718Z,99854.38
2019-03-16T21:18:42.799Z,99856.58
2019-03-16T21:21:14.456Z,99858.08
2019-03-16T21:23:46.134Z,99862.78
2019-03-16T21:26:17.734Z,99860.75
2019-03-16T21:28:49.421Z,99861.13
2019-03-16T21:31:21.047Z,99854.16
2019-03-16T21:33:52.706Z,99856.36
2019-03-16T21:36:24.363Z,99857.11
2019-03-16T21:38:56.916Z,99852.23
2019-03-16T21:41:28.597Z,99847.84
2019-03-16T21:44:00.260Z,99842.91
2019-03-16T21:46:31.849Z,99844.47
2019-03-16T21:49:03.446Z,99845.07
2019-03-16T21:51:35.125Z,99838.16
2019-03-16T21:54:06.799Z,99836.54
2019-03-16T21:56:38.407Z,99833.13
2019-03-16T21:59:10.057Z,99829.70
2019-03-16T22:01:41.676Z,99827.31
2019-03-16T22:04:13.266Z,99828.78
2019-03-16T22:06:44.866Z,99823.80
2019-03-16T22:09:16.932Z,99822.83
2019-03-16T22:11:48.567Z,99822.47
2019-03-16T22:14:20.162Z,99826.13
2019-03-16T22:16:51.783Z,99829.03
2019-03-16T22:19:23.377Z,99827.83
2019-03-16T22:21:55.085Z,99834.42
2019-03-16T22:24:28.085Z,99831.66
2019-03-16T22:27:00.015Z,99831.55
2019-03-16T22:29:31.595Z,99827.77
2019-03-16T22:32:03.307Z,99821.55
2019-03-16T22:34:34.954Z,99825.56
2019-03-16T22:37:06.590Z,99822.55
2019-03-16T22:39:38.159Z,99813.28
2019-03-16T22:42:09.785Z,99812.94
2019-03-16T22:44:41.439Z,99811.47
2019-03-16T22:47:13.118Z,99815.38
2019-03-16T22:49:44.767Z,99816.22
2019-03-16T22:52:16.427Z,99817.59
2019-03-16T22:54:48.013Z,99818.30
2019-03-16T22:57:19.616Z,99819.52
2019-03-16T22:59:51.326Z,99809.44
2019-03-16T23:02:23.188Z,99810.53
2019-03-16T23:04:54.999Z,99807.48
2019-03-16T23:07:26.965Z,99805.66
2019-03-16T23:09:58.613Z,99817.72
2019-03-16T23:12:30.223Z,99817.58
2019-03-16T23:15:01.913Z,99809.78
2019-03-16T23:17:33.784Z,99807.37
2019-03-16T23:20:05.600Z,99802.73
2019-03-16T23:22:37.276Z,99802.73
2019-03-16T23:25:08.939Z,99807.72
2019-03-16T23:27:40.607Z,99802.22
2019-03-16T23:30:12.280Z,99804.92
2019-03-16T23:32:43.964Z,99808.70
2019-03-16T23:35:15.629Z,99802.45
2019-03-16T23:37:47.288Z,99802.47
2019-03-16T23:40:18.939Z,99805.13
2019-03-16T23:42:50.720Z,99814.73
2019-03-16T23:45:22.307Z,99808.40
2019-03-16T23:47:54.084Z,99808.16
2019-03-16T23:50:25.786Z,99806.00
2019-03-16T23:52:57.396Z,99798.91
2019-03-16T23:55:28.996Z,99799.02
2019-03-16T23:58:00.644Z,99799.52
